sensor_id;sensor_type;location;lat;lon;timestamp;temperature;humidity
10231;DHT22;62604;49.432;8.680;2022-09-20T00:00:48;10.60;99.90
10231;DHT22;62604;49.432;8.680;2022-09-20T00:03:18;10.30;99.90
10231;DHT22;62604;49.432;8.680;2022-09-20T00:05:45;10.30;99.90
10231;DHT22;62604;49.432;8.680;2022-09-20T00:08:14;10.30;99.90
10231;DHT22;62604;49.432;8.680;2022-09-20T00:10:42;10.40;99.90
10231;DHT22;62604;49.432;8.680;2022-09-20T00:13:11;10.40;99.90
10231;DHT22;62604;49.432;8.680;2022-09-20T00:15:43;10.40;99.90
10231;DHT22;62604;49.432;8.680;2022-09-20T00:18:11;10.40;99.90
10231;DHT22;62604;49.432;8.680;2022-09-20T00:20:45;10.40;99.90
10231;DHT22;62604;49.432;8.680;2022-09-20T00:23:12;10.40;99.90
10231;DHT22;62604;49.432;8.680;2022-09-20T00:25:39;10.40;99.90
10231;DHT22;62604;49.432;8.680;2022-09-20T00:28:08;10.40;99.90
10231;DHT22;62604;49.432;8.680;2022-09-20T00:30:35;10.40;99.90
10231;DHT22;62604;49.432;8.680;2022-09-20T00:33:02;10.40;99.90
10231;DHT22;62604;49.432;8.680;2022-09-20T00:35:30;10.40;99.90
10231;DHT22;62604;49.432;8.680;2022-09-20T00:37:57;10.40;99.90
10231;DHT22;62604;49.432;8.680;2022-09-20T00:40:25;10.40;99.90
10231;DHT22;62604;49.432;8.680;2022-09-20T00:42:53;10.40;99.90
10231;DHT22;62604;49.432;8.680;2022-09-20T00:45:22;10.40;99.90
10231;DHT22;62604;49.432;8.680;2022-09-20T00:47:52;10.40;99.90
10231;DHT22;62604;49.432;8.680;2022-09-20T00:50:30;10.40;99.90
10231;DHT22;62604;49.432;8.680;2022-09-20T00:53:05;10.40;99.90
10231;DHT22;62604;49.432;8.680;2022-09-20T00:55:34;10.40;99.90
10231;DHT22;62604;49.432;8.680;2022-09-20T00:58:02;10.40;99.90
10231;DHT22;62604;49.432;8.680;2022-09-20T01:00:30;10.40;99.90
10231;DHT22;62604;49.432;8.680;2022-09-20T01:03:00;10.40;99.90
10231;DHT22;62604;49.432;8.680;2022-09-20T01:05:28;10.40;99.90
10231;DHT22;62604;49.432;8.680;2022-09-20T01:07:56;10.30;99.90
10231;DHT22;62604;49.432;8.680;2022-09-20T01:10:24;10.30;99.90
10231;DHT22;62604;49.432;8.680;2022-09-20T01:12:52;10.30;99.90
10231;DHT22;62604;49.432;8.680;2022-09-20T01:15:20;10.20;99.90
10231;DHT22;62604;49.432;8.680;2022-09-20T01:17:51;10.20;99.90
10231;DHT22;62604;49.432;8.680;2022-09-20T01:20:21;10.20;99.90
10231;DHT22;62604;49.432;8.680;2022-09-20T01:23:20;10.10;99.90
10231;DHT22;62604;49.432;8.680;2022-09-20T01:28:57;10.10;99.90
10231;DHT22;62604;49.432;8.680;2022-09-20T01:31:30;10.00;99.90
10231;DHT22;62604;49.432;8.680;2022-09-20T01:34:00;10.00;99.90
10231;DHT22;62604;49.432;8.680;2022-09-20T01:36:33;10.00;99.90
10231;DHT22;62604;49.432;8.680;2022-09-20T01:39:07;10.00;99.90
10231;DHT22;62604;49.432;8.680;2022-09-20T01:41:42;10.00;99.90
10231;DHT22;62604;49.432;8.680;2022-09-20T01:44:17;10.00;99.90
10231;DHT22;62604;49.432;8.680;2022-09-20T01:46:52;10.00;99.90
10231;DHT22;62604;49.432;8.680;2022-09-20T01:49:29;9.90;99.90
10231;DHT22;62604;49.432;8.680;2022-09-20T02:07:47;9.90;99.90
10231;DHT22;62604;49.432;8.680;2022-09-20T02:13:21;9.90;99.90
10231;DHT22;62604;49.432;8.680;2022-09-20T02:16:23;9.80;99.90
10231;DHT22;62604;49.432;8.680;2022-09-20T02:19:22;9.80;99.90
10231;DHT22;62604;49.432;8.680;2022-09-20T02:24:47;9.80;99.90
10231;DHT22;62604;49.432;8.680;2022-09-20T02:27:23;9.80;99.90
10231;DHT22;62604;49.432;8.680;2022-09-20T02:30:11;9.80;99.90
10231;DHT22;62604;49.432;8.680;2022-09-20T02:33:02;9.80;99.90
10231;DHT22;62604;49.432;8.680;2022-09-20T02:35:40;9.80;99.90
10231;DHT22;62604;49.432;8.680;2022-09-20T02:38:31;9.80;99.90
10231;DHT22;62604;49.432;8.680;2022-09-20T02:41:40;9.90;99.90
10231;DHT22;62604;49.432;8.680;2022-09-20T02:44:17;9.90;99.90
10231;DHT22;62604;49.432;8.680;2022-09-20T02:46:52;9.90;99.90
10231;DHT22;62604;49.432;8.680;2022-09-20T02:49:28;9.90;99.90
10231;DHT22;62604;49.432;8.680;2022-09-20T02:52:02;9.90;99.90
10231;DHT22;62604;49.432;8.680;2022-09-20T02:54:36;9.90;99.90
10231;DHT22;62604;49.432;8.680;2022-09-20T02:57:14;9.80;99.90
10231;DHT22;62604;49.432;8.680;2022-09-20T02:59:46;9.80;99.90
10231;DHT22;62604;49.432;8.680;2022-09-20T03:02:23;9.80;99.90
10231;DHT22;62604;49.432;8.680;2022-09-20T03:05:05;9.70;99.90
10231;DHT22;62604;49.432;8.680;2022-09-20T03:07:49;9.70;99.90
10231;DHT22;62604;49.432;8.680;2022-09-20T03:10:26;9.70;99.90
10231;DHT22;62604;49.432;8.680;2022-09-20T03:13:14;9.60;99.90
10231;DHT22;62604;49.432;8.680;2022-09-20T03:15:54;9.60;99.90
10231;DHT22;62604;49.432;8.680;2022-09-20T03:18:33;9.60;99.90
10231;DHT22;62604;49.432;8.680;2022-09-20T03:21:13;9.60;99.90
10231;DHT22;62604;49.432;8.680;2022-09-20T03:23:53;9.60;99.90
10231;DHT22;62604;49.432;8.680;2022-09-20T03:26:33;9.50;99.90
10231;DHT22;62604;49.432;8.680;2022-09-20T03:29:10;9.50;99.90
10231;DHT22;62604;49.432;8.680;2022-09-20T03:31:50;9.50;99.90
10231;DHT22;62604;49.432;8.680;2022-09-20T03:34:36;9.50;99.90
10231;DHT22;62604;49.432;8.680;2022-09-20T03:37:20;9.40;99.90
10231;DHT22;62604;49.432;8.680;2022-09-20T03:40:06;9.40;99.90
10231;DHT22;62604;49.432;8.680;2022-09-20T03:42:45;9.40;99.90
10231;DHT22;62604;49.432;8.680;2022-09-20T03:45:34;9.40;99.90
10231;DHT22;62604;49.432;8.680;2022-09-20T03:51:12;9.30;99.90
10231;DHT22;62604;49.432;8.680;2022-09-20T03:57:03;9.20;99.90
10231;DHT22;62604;49.432;8.680;2022-09-20T04:00:07;9.20;99.90
10231;DHT22;62604;49.432;8.680;2022-09-20T04:05:47;9.10;99.90
10231;DHT22;62604;49.432;8.680;2022-09-20T04:08:29;9.10;99.90
10231;DHT22;62604;49.432;8.680;2022-09-20T04:11:04;9.10;99.90
10231;DHT22;62604;49.432;8.680;2022-09-20T04:13:37;9.10;99.90
10231;DHT22;62604;49.432;8.680;2022-09-20T04:16:16;9.00;99.90
10231;DHT22;62604;49.432;8.680;2022-09-20T04:18:50;9.00;99.90
10231;DHT22;62604;49.432;8.680;2022-09-20T04:21:26;9.00;99.90
10231;DHT22;62604;49.432;8.680;2022-09-20T04:24:00;9.00;99.90
10231;DHT22;62604;49.432;8.680;2022-09-20T04:26:30;8.90;99.90
10231;DHT22;62604;49.432;8.680;2022-09-20T04:29:21;8.90;99.90
10231;DHT22;62604;49.432;8.680;2022-09-20T04:32:00;8.90;99.90
10231;DHT22;62604;49.432;8.680;2022-09-20T04:34:34;8.80;99.90
10231;DHT22;62604;49.432;8.680;2022-09-20T04:37:25;8.80;99.90
10231;DHT22;62604;49.432;8.680;2022-09-20T04:40:08;8.80;99.90
10231;DHT22;62604;49.432;8.680;2022-09-20T04:49:22;8.70;99.90
10231;DHT22;62604;49.432;8.680;2022-09-20T04:52:19;8.70;99.90
10231;DHT22;62604;49.432;8.680;2022-09-20T05:04:12;8.80;99.90
10231;DHT22;62604;49.432;8.680;2022-09-20T05:07:02;8.90;99.90
10231;DHT22;62604;49.432;8.680;2022-09-20T05:09:55;8.90;99.90
10231;DHT22;62604;49.432;8.680;2022-09-20T05:12:59;9.00;99.90
10231;DHT22;62604;49.432;8.680;2022-09-20T05:15:38;9.00;99.90
10231;DHT22;62604;49.432;8.680;2022-09-20T05:24:08;8.90;99.90
10231;DHT22;62604;49.432;8.680;2022-09-20T05:26:47;8.90;99.90
10231;DHT22;62604;49.432;8.680;2022-09-20T05:29:24;8.90;99.90
10231;DHT22;62604;49.432;8.680;2022-09-20T05:32:00;8.90;99.90
10231;DHT22;62604;49.432;8.680;2022-09-20T05:34:33;8.90;99.90
10231;DHT22;62604;49.432;8.680;2022-09-20T05:37:15;8.90;99.90
10231;DHT22;62604;49.432;8.680;2022-09-20T05:39:51;9.00;99.90
10231;DHT22;62604;49.432;8.680;2022-09-20T05:42:24;8.80;99.90
10231;DHT22;62604;49.432;8.680;2022-09-20T05:45:06;8.80;99.90
10231;DHT22;62604;49.432;8.680;2022-09-20T05:47:51;8.80;99.90
10231;DHT22;62604;49.432;8.680;2022-09-20T05:50:45;8.80;99.90
10231;DHT22;62604;49.432;8.680;2022-09-20T05:56:40;8.90;99.90
10231;DHT22;62604;49.432;8.680;2022-09-20T05:59:27;8.90;99.90
10231;DHT22;62604;49.432;8.680;2022-09-20T06:02:14;9.00;99.90
10231;DHT22;62604;49.432;8.680;2022-09-20T06:04:51;9.00;99.90
10231;DHT22;62604;49.432;8.680;2022-09-20T06:07:31;9.00;99.90
10231;DHT22;62604;49.432;8.680;2022-09-20T06:10:30;9.10;99.90
10231;DHT22;62604;49.432;8.680;2022-09-20T06:13:22;9.20;99.90
10231;DHT22;62604;49.432;8.680;2022-09-20T06:15:58;9.30;99.90
10231;DHT22;62604;49.432;8.680;2022-09-20T06:18:30;9.30;99.90
10231;DHT22;62604;49.432;8.680;2022-09-20T06:21:08;9.40;99.90
10231;DHT22;62604;49.432;8.680;2022-09-20T06:23:40;9.50;99.90
10231;DHT22;62604;49.432;8.680;2022-09-20T06:26:12;10.00;99.90
10231;DHT22;62604;49.432;8.680;2022-09-20T06:28:46;10.80;99.90
10231;DHT22;62604;49.432;8.680;2022-09-20T06:31:16;11.40;99.90
10231;DHT22;62604;49.432;8.680;2022-09-20T06:33:48;12.00;99.90
10231;DHT22;62604;49.432;8.680;2022-09-20T06:36:20;12.40;99.90
10231;DHT22;62604;49.432;8.680;2022-09-20T06:39:13;12.40;99.90
10231;DHT22;62604;49.432;8.680;2022-09-20T06:42:00;12.40;99.90
10231;DHT22;62604;49.432;8.680;2022-09-20T06:44:28;12.70;99.90
10231;DHT22;62604;49.432;8.680;2022-09-20T06:46:55;12.90;99.90
10231;DHT22;62604;49.432;8.680;2022-09-20T06:49:23;12.60;99.90
10231;DHT22;62604;49.432;8.680;2022-09-20T06:51:50;12.20;99.90
10231;DHT22;62604;49.432;8.680;2022-09-20T06:54:19;12.00;99.90
10231;DHT22;62604;49.432;8.680;2022-09-20T06:56:49;12.50;99.90
10231;DHT22;62604;49.432;8.680;2022-09-20T06:59:16;13.90;99.90
10231;DHT22;62604;49.432;8.680;2022-09-20T07:01:46;14.70;99.90
10231;DHT22;62604;49.432;8.680;2022-09-20T07:04:13;14.60;99.90
10231;DHT22;62604;49.432;8.680;2022-09-20T07:06:40;14.00;99.90
10231;DHT22;62604;49.432;8.680;2022-09-20T07:09:10;13.20;99.90
10231;DHT22;62604;49.432;8.680;2022-09-20T07:11:37;13.00;99.90
10231;DHT22;62604;49.432;8.680;2022-09-20T07:14:04;13.10;99.90
10231;DHT22;62604;49.432;8.680;2022-09-20T07:16:32;13.00;99.90
10231;DHT22;62604;49.432;8.680;2022-09-20T07:19:03;12.90;99.90
10231;DHT22;62604;49.432;8.680;2022-09-20T07:21:31;12.50;99.90
10231;DHT22;62604;49.432;8.680;2022-09-20T07:23:59;12.30;99.90
10231;DHT22;62604;49.432;8.680;2022-09-20T07:26:28;12.20;99.90
10231;DHT22;62604;49.432;8.680;2022-09-20T07:28:56;12.10;99.90
10231;DHT22;62604;49.432;8.680;2022-09-20T07:31:25;12.20;99.90
10231;DHT22;62604;49.432;8.680;2022-09-20T07:33:53;12.50;99.90
10231;DHT22;62604;49.432;8.680;2022-09-20T07:36:22;13.90;99.90
10231;DHT22;62604;49.432;8.680;2022-09-20T07:38:51;15.10;99.90
10231;DHT22;62604;49.432;8.680;2022-09-20T07:41:19;16.50;97.10
10231;DHT22;62604;49.432;8.680;2022-09-20T07:43:47;17.90;95.60
10231;DHT22;62604;49.432;8.680;2022-09-20T07:46:15;18.80;89.10
10231;DHT22;62604;49.432;8.680;2022-09-20T07:48:42;18.50;90.60
10231;DHT22;62604;49.432;8.680;2022-09-20T07:51:10;18.90;86.30
10231;DHT22;62604;49.432;8.680;2022-09-20T07:53:40;18.30;83.90
10231;DHT22;62604;49.432;8.680;2022-09-20T07:56:09;18.50;89.90
10231;DHT22;62604;49.432;8.680;2022-09-20T07:58:37;19.70;83.30
10231;DHT22;62604;49.432;8.680;2022-09-20T08:01:06;20.60;72.70
10231;DHT22;62604;49.432;8.680;2022-09-20T08:03:35;20.30;67.70
10231;DHT22;62604;49.432;8.680;2022-09-20T08:06:04;20.20;70.10
10231;DHT22;62604;49.432;8.680;2022-09-20T08:08:32;19.90;71.80
10231;DHT22;62604;49.432;8.680;2022-09-20T08:11:03;19.30;75.20
10231;DHT22;62604;49.432;8.680;2022-09-20T08:13:34;19.30;75.30
10231;DHT22;62604;49.432;8.680;2022-09-20T08:16:02;19.10;71.70
10231;DHT22;62604;49.432;8.680;2022-09-20T08:18:30;19.50;75.60
10231;DHT22;62604;49.432;8.680;2022-09-20T08:21:02;19.80;72.30
10231;DHT22;62604;49.432;8.680;2022-09-20T08:23:32;18.80;75.90
10231;DHT22;62604;49.432;8.680;2022-09-20T08:25:59;17.80;86.80
10231;DHT22;62604;49.432;8.680;2022-09-20T08:28:29;17.90;86.30
10231;DHT22;62604;49.432;8.680;2022-09-20T08:31:01;18.00;84.40
10231;DHT22;62604;49.432;8.680;2022-09-20T08:33:28;19.30;75.40
10231;DHT22;62604;49.432;8.680;2022-09-20T08:35:55;20.10;71.30
10231;DHT22;62604;49.432;8.680;2022-09-20T08:38:23;20.20;70.10
10231;DHT22;62604;49.432;8.680;2022-09-20T08:40:54;20.60;67.20
10231;DHT22;62604;49.432;8.680;2022-09-20T08:43:26;21.80;58.90
10231;DHT22;62604;49.432;8.680;2022-09-20T08:45:58;21.70;59.30
10231;DHT22;62604;49.432;8.680;2022-09-20T08:48:28;22.00;57.50
10231;DHT22;62604;49.432;8.680;2022-09-20T08:50:58;23.00;52.80
10231;DHT22;62604;49.432;8.680;2022-09-20T08:53:26;21.30;55.50
10231;DHT22;62604;49.432;8.680;2022-09-20T08:55:53;22.00;55.60
10231;DHT22;62604;49.432;8.680;2022-09-20T08:58:24;22.00;54.50
10231;DHT22;62604;49.432;8.680;2022-09-20T09:00:52;22.30;54.30
10231;DHT22;62604;49.432;8.680;2022-09-20T09:03:22;22.20;48.80
10231;DHT22;62604;49.432;8.680;2022-09-20T09:05:51;21.60;53.70
10231;DHT22;62604;49.432;8.680;2022-09-20T09:08:19;22.60;52.00
10231;DHT22;62604;49.432;8.680;2022-09-20T09:10:50;23.20;49.90
10231;DHT22;62604;49.432;8.680;2022-09-20T09:13:24;23.90;47.90
10231;DHT22;62604;49.432;8.680;2022-09-20T09:15:55;24.40;45.60
10231;DHT22;62604;49.432;8.680;2022-09-20T09:18:31;23.60;46.40
10231;DHT22;62604;49.432;8.680;2022-09-20T09:21:00;22.40;48.50
10231;DHT22;62604;49.432;8.680;2022-09-20T09:23:30;21.30;50.40
10231;DHT22;62604;49.432;8.680;2022-09-20T09:26:04;20.60;53.80
10231;DHT22;62604;49.432;8.680;2022-09-20T09:28:31;19.50;57.60
10231;DHT22;62604;49.432;8.680;2022-09-20T09:31:12;18.90;66.80
10231;DHT22;62604;49.432;8.680;2022-09-20T09:33:43;18.40;68.30
10231;DHT22;62604;49.432;8.680;2022-09-20T09:36:14;18.10;73.70
10231;DHT22;62604;49.432;8.680;2022-09-20T09:38:43;18.10;75.10
10231;DHT22;62604;49.432;8.680;2022-09-20T09:41:21;18.20;75.60
10231;DHT22;62604;49.432;8.680;2022-09-20T09:43:58;19.40;69.70
10231;DHT22;62604;49.432;8.680;2022-09-20T09:46:30;20.80;59.30
10231;DHT22;62604;49.432;8.680;2022-09-20T09:49:08;20.90;56.60
10231;DHT22;62604;49.432;8.680;2022-09-20T09:51:36;20.40;59.50
10231;DHT22;62604;49.432;8.680;2022-09-20T09:54:04;20.00;59.30
10231;DHT22;62604;49.432;8.680;2022-09-20T09:56:53;19.60;62.30
10231;DHT22;62604;49.432;8.680;2022-09-20T09:59:40;18.30;69.90
10231;DHT22;62604;49.432;8.680;2022-09-20T10:02:22;16.40;78.40
10231;DHT22;62604;49.432;8.680;2022-09-20T10:05:01;15.50;89.40
10231;DHT22;62604;49.432;8.680;2022-09-20T10:07:37;15.60;92.00
10231;DHT22;62604;49.432;8.680;2022-09-20T10:10:15;15.70;91.20
10231;DHT22;62604;49.432;8.680;2022-09-20T10:12:54;15.50;90.10
10231;DHT22;62604;49.432;8.680;2022-09-20T10:15:31;15.50;91.20
10231;DHT22;62604;49.432;8.680;2022-09-20T10:18:30;15.60;91.20
10231;DHT22;62604;49.432;8.680;2022-09-20T10:21:11;15.70;92.20
10231;DHT22;62604;49.432;8.680;2022-09-20T10:23:54;15.70;91.20
10231;DHT22;62604;49.432;8.680;2022-09-20T10:29:34;16.60;78.70
10231;DHT22;62604;49.432;8.680;2022-09-20T10:32:17;16.20;75.70
10231;DHT22;62604;49.432;8.680;2022-09-20T10:35:06;15.70;78.40
10231;DHT22;62604;49.432;8.680;2022-09-20T10:37:45;15.80;84.20
10231;DHT22;62604;49.432;8.680;2022-09-20T10:40:25;16.20;85.10
10231;DHT22;62604;49.432;8.680;2022-09-20T10:43:29;16.30;73.80
10231;DHT22;62604;49.432;8.680;2022-09-20T10:46:08;17.20;74.20
10231;DHT22;62604;49.432;8.680;2022-09-20T10:48:41;18.60;61.10
10231;DHT22;62604;49.432;8.680;2022-09-20T10:51:17;20.00;58.60
10231;DHT22;62604;49.432;8.680;2022-09-20T10:53:58;21.40;51.70
10231;DHT22;62604;49.432;8.680;2022-09-20T10:56:34;22.70;45.50
10231;DHT22;62604;49.432;8.680;2022-09-20T10:59:24;23.70;40.00
10231;DHT22;62604;49.432;8.680;2022-09-20T11:02:12;24.90;33.70
10231;DHT22;62604;49.432;8.680;2022-09-20T11:05:03;25.60;32.30
10231;DHT22;62604;49.432;8.680;2022-09-20T11:07:44;25.90;27.30
10231;DHT22;62604;49.432;8.680;2022-09-20T11:10:30;26.60;25.40
10231;DHT22;62604;49.432;8.680;2022-09-20T11:13:05;26.50;23.70
10231;DHT22;62604;49.432;8.680;2022-09-20T11:15:39;26.90;22.80
10231;DHT22;62604;49.432;8.680;2022-09-20T11:18:11;24.80;23.00
10231;DHT22;62604;49.432;8.680;2022-09-20T11:20:54;21.70;26.70
10231;DHT22;62604;49.432;8.680;2022-09-20T11:23:28;21.10;30.60
10231;DHT22;62604;49.432;8.680;2022-09-20T11:26:06;20.40;34.30
10231;DHT22;62604;49.432;8.680;2022-09-20T11:28:39;19.50;33.70
10231;DHT22;62604;49.432;8.680;2022-09-20T11:31:10;19.50;38.20
10231;DHT22;62604;49.432;8.680;2022-09-20T11:33:44;19.20;40.90
10231;DHT22;62604;49.432;8.680;2022-09-20T11:36:19;18.80;43.60
10231;DHT22;62604;49.432;8.680;2022-09-20T11:38:50;18.20;49.20
10231;DHT22;62604;49.432;8.680;2022-09-20T11:41:24;17.80;57.60
10231;DHT22;62604;49.432;8.680;2022-09-20T11:43:53;17.50;65.00
10231;DHT22;62604;49.432;8.680;2022-09-20T11:46:24;17.40;68.60
10231;DHT22;62604;49.432;8.680;2022-09-20T11:48:53;17.10;72.70
10231;DHT22;62604;49.432;8.680;2022-09-20T11:51:51;17.00;73.60
10231;DHT22;62604;49.432;8.680;2022-09-20T11:54:43;17.40;75.40
10231;DHT22;62604;49.432;8.680;2022-09-20T11:57:18;18.60;71.20
10231;DHT22;62604;49.432;8.680;2022-09-20T11:59:50;20.40;58.60
10231;DHT22;62604;49.432;8.680;2022-09-20T12:02:23;21.20;48.40
10231;DHT22;62604;49.432;8.680;2022-09-20T12:04:54;21.00;47.30
10231;DHT22;62604;49.432;8.680;2022-09-20T12:07:25;20.30;44.40
10231;DHT22;62604;49.432;8.680;2022-09-20T12:09:56;20.00;42.60
10231;DHT22;62604;49.432;8.680;2022-09-20T12:12:34;19.60;43.60
10231;DHT22;62604;49.432;8.680;2022-09-20T12:15:05;19.20;46.00
10231;DHT22;62604;49.432;8.680;2022-09-20T12:18:03;18.70;45.40
10231;DHT22;62604;49.432;8.680;2022-09-20T12:20:57;18.30;46.20
10231;DHT22;62604;49.432;8.680;2022-09-20T12:26:37;17.50;50.00
10231;DHT22;62604;49.432;8.680;2022-09-20T12:32:56;17.10;49.30
10231;DHT22;62604;49.432;8.680;2022-09-20T12:38:29;17.20;50.20
10231;DHT22;62604;49.432;8.680;2022-09-20T12:41:15;17.60;50.90
10231;DHT22;62604;49.432;8.680;2022-09-20T12:43:52;18.30;49.50
10231;DHT22;62604;49.432;8.680;2022-09-20T12:52:32;20.80;39.40
10231;DHT22;62604;49.432;8.680;2022-09-20T12:55:49;21.20;34.50
10231;DHT22;62604;49.432;8.680;2022-09-20T12:58:25;21.40;33.10
10231;DHT22;62604;49.432;8.680;2022-09-20T13:01:33;20.80;32.20
10231;DHT22;62604;49.432;8.680;2022-09-20T13:07:47;18.50;36.60
10231;DHT22;62604;49.432;8.680;2022-09-20T13:10:31;17.40;38.50
10231;DHT22;62604;49.432;8.680;2022-09-20T13:13:10;16.90;41.60
10231;DHT22;62604;49.432;8.680;2022-09-20T13:15:38;17.10;42.30
10231;DHT22;62604;49.432;8.680;2022-09-20T13:18:11;17.40;45.10
10231;DHT22;62604;49.432;8.680;2022-09-20T13:20:40;17.00;47.10
10231;DHT22;62604;49.432;8.680;2022-09-20T13:23:16;16.40;50.30
10231;DHT22;62604;49.432;8.680;2022-09-20T13:25:45;16.40;51.50
10231;DHT22;62604;49.432;8.680;2022-09-20T13:28:20;16.70;52.30
10231;DHT22;62604;49.432;8.680;2022-09-20T13:31:27;17.10;56.40
10231;DHT22;62604;49.432;8.680;2022-09-20T13:34:11;17.50;53.30
10231;DHT22;62604;49.432;8.680;2022-09-20T13:36:39;17.80;51.80
10231;DHT22;62604;49.432;8.680;2022-09-20T13:39:07;17.90;48.30
10231;DHT22;62604;49.432;8.680;2022-09-20T13:41:34;17.50;48.60
10231;DHT22;62604;49.432;8.680;2022-09-20T13:44:03;17.40;47.90
10231;DHT22;62604;49.432;8.680;2022-09-20T13:46:31;17.50;48.10
10231;DHT22;62604;49.432;8.680;2022-09-20T13:49:13;17.50;46.10
10231;DHT22;62604;49.432;8.680;2022-09-20T13:51:42;17.40;45.90
10231;DHT22;62604;49.432;8.680;2022-09-20T13:54:17;17.30;44.50
10231;DHT22;62604;49.432;8.680;2022-09-20T13:56:46;16.70;45.50
10231;DHT22;62604;49.432;8.680;2022-09-20T13:59:14;16.60;46.20
10231;DHT22;62604;49.432;8.680;2022-09-20T14:01:48;16.40;46.20
10231;DHT22;62604;49.432;8.680;2022-09-20T14:04:20;16.70;50.90
10231;DHT22;62604;49.432;8.680;2022-09-20T14:06:48;16.90;46.80
10231;DHT22;62604;49.432;8.680;2022-09-20T14:09:20;17.10;47.70
10231;DHT22;62604;49.432;8.680;2022-09-20T14:11:51;17.20;43.10
10231;DHT22;62604;49.432;8.680;2022-09-20T14:14:19;17.00;44.40
10231;DHT22;62604;49.432;8.680;2022-09-20T14:16:47;16.90;44.80
10231;DHT22;62604;49.432;8.680;2022-09-20T14:19:19;17.20;49.40
10231;DHT22;62604;49.432;8.680;2022-09-20T14:21:47;17.30;50.00
10231;DHT22;62604;49.432;8.680;2022-09-20T14:24:26;17.20;49.20
10231;DHT22;62604;49.432;8.680;2022-09-20T14:27:03;17.10;51.40
10231;DHT22;62604;49.432;8.680;2022-09-20T14:29:38;17.20;52.10
10231;DHT22;62604;49.432;8.680;2022-09-20T14:35:03;17.00;51.80
10231;DHT22;62604;49.432;8.680;2022-09-20T14:37:33;16.60;51.90
10231;DHT22;62604;49.432;8.680;2022-09-20T14:40:03;16.50;54.20
10231;DHT22;62604;49.432;8.680;2022-09-20T14:42:34;16.50;54.80
10231;DHT22;62604;49.432;8.680;2022-09-20T14:45:03;16.50;54.80
10231;DHT22;62604;49.432;8.680;2022-09-20T14:47:35;16.20;52.80
10231;DHT22;62604;49.432;8.680;2022-09-20T14:50:22;16.00;53.30
10231;DHT22;62604;49.432;8.680;2022-09-20T14:53:03;15.90;55.90
10231;DHT22;62604;49.432;8.680;2022-09-20T14:55:32;15.70;54.20
10231;DHT22;62604;49.432;8.680;2022-09-20T14:58:01;15.50;55.60
10231;DHT22;62604;49.432;8.680;2022-09-20T15:00:29;15.70;58.90
10231;DHT22;62604;49.432;8.680;2022-09-20T15:03:12;15.70;60.20
10231;DHT22;62604;49.432;8.680;2022-09-20T15:05:45;15.80;61.00
10231;DHT22;62604;49.432;8.680;2022-09-20T15:08:13;15.70;57.90
10231;DHT22;62604;49.432;8.680;2022-09-20T15:10:43;15.70;61.40
10231;DHT22;62604;49.432;8.680;2022-09-20T15:13:10;15.70;63.20
10231;DHT22;62604;49.432;8.680;2022-09-20T15:15:38;15.80;61.20
10231;DHT22;62604;49.432;8.680;2022-09-20T15:18:16;15.70;61.70
10231;DHT22;62604;49.432;8.680;2022-09-20T15:20:45;15.60;61.10
10231;DHT22;62604;49.432;8.680;2022-09-20T15:23:12;15.60;63.00
10231;DHT22;62604;49.432;8.680;2022-09-20T15:25:39;15.60;63.80
10231;DHT22;62604;49.432;8.680;2022-09-20T15:28:10;15.50;64.60
10231;DHT22;62604;49.432;8.680;2022-09-20T15:30:39;15.60;64.20
10231;DHT22;62604;49.432;8.680;2022-09-20T15:33:07;15.50;64.50
10231;DHT22;62604;49.432;8.680;2022-09-20T15:35:34;15.50;65.10
10231;DHT22;62604;49.432;8.680;2022-09-20T15:38:03;15.30;63.10
10231;DHT22;62604;49.432;8.680;2022-09-20T15:40:33;15.20;64.90
10231;DHT22;62604;49.432;8.680;2022-09-20T15:43:00;15.30;70.40
10231;DHT22;62604;49.432;8.680;2022-09-20T15:45:27;15.20;66.90
10231;DHT22;62604;49.432;8.680;2022-09-20T15:47:56;15.10;65.60
10231;DHT22;62604;49.432;8.680;2022-09-20T15:50:24;15.10;66.30
10231;DHT22;62604;49.432;8.680;2022-09-20T15:52:51;14.80;63.40
10231;DHT22;62604;49.432;8.680;2022-09-20T15:55:20;14.60;64.10
10231;DHT22;62604;49.432;8.680;2022-09-20T15:57:47;14.60;66.10
10231;DHT22;62604;49.432;8.680;2022-09-20T16:00:16;14.50;66.50
10231;DHT22;62604;49.432;8.680;2022-09-20T16:02:47;14.60;66.60
10231;DHT22;62604;49.432;8.680;2022-09-20T16:05:15;14.60;67.50
10231;DHT22;62604;49.432;8.680;2022-09-20T16:07:42;14.60;69.00
10231;DHT22;62604;49.432;8.680;2022-09-20T16:10:10;14.50;69.90
10231;DHT22;62604;49.432;8.680;2022-09-20T16:12:39;14.50;70.00
10231;DHT22;62604;49.432;8.680;2022-09-20T16:15:07;14.40;74.70
10231;DHT22;62604;49.432;8.680;2022-09-20T16:17:35;14.20;80.90
10231;DHT22;62604;49.432;8.680;2022-09-20T16:20:20;14.20;83.30
10231;DHT22;62604;49.432;8.680;2022-09-20T16:22:48;14.30;87.00
10231;DHT22;62604;49.432;8.680;2022-09-20T16:25:15;14.10;86.20
10231;DHT22;62604;49.432;8.680;2022-09-20T16:27:44;13.90;86.90
10231;DHT22;62604;49.432;8.680;2022-09-20T16:30:12;13.90;88.70
10231;DHT22;62604;49.432;8.680;2022-09-20T16:32:39;14.00;90.80
10231;DHT22;62604;49.432;8.680;2022-09-20T16:35:07;14.00;90.70
10231;DHT22;62604;49.432;8.680;2022-09-20T16:37:35;14.00;91.90
10231;DHT22;62604;49.432;8.680;2022-09-20T16:40:04;14.00;91.60
10231;DHT22;62604;49.432;8.680;2022-09-20T16:42:32;14.00;88.80
10231;DHT22;62604;49.432;8.680;2022-09-20T16:45:02;14.10;85.90
10231;DHT22;62604;49.432;8.680;2022-09-20T16:47:29;14.00;88.40
10231;DHT22;62604;49.432;8.680;2022-09-20T16:49:56;13.90;87.00
10231;DHT22;62604;49.432;8.680;2022-09-20T16:52:24;13.90;88.00
10231;DHT22;62604;49.432;8.680;2022-09-20T16:54:51;13.90;89.10
10231;DHT22;62604;49.432;8.680;2022-09-20T16:57:18;14.00;90.60
10231;DHT22;62604;49.432;8.680;2022-09-20T16:59:47;13.90;88.70
10231;DHT22;62604;49.432;8.680;2022-09-20T17:02:18;13.80;88.00
10231;DHT22;62604;49.432;8.680;2022-09-20T17:04:45;13.80;88.00
10231;DHT22;62604;49.432;8.680;2022-09-20T17:07:12;13.70;88.10
10231;DHT22;62604;49.432;8.680;2022-09-20T17:09:39;13.70;88.70
10231;DHT22;62604;49.432;8.680;2022-09-20T17:12:06;13.60;88.80
10231;DHT22;62604;49.432;8.680;2022-09-20T17:14:34;13.50;89.50
10231;DHT22;62604;49.432;8.680;2022-09-20T17:17:03;13.40;90.60
10231;DHT22;62604;49.432;8.680;2022-09-20T17:19:32;13.40;90.70
10231;DHT22;62604;49.432;8.680;2022-09-20T17:21:59;13.30;92.00
10231;DHT22;62604;49.432;8.680;2022-09-20T17:24:27;13.30;94.60
10231;DHT22;62604;49.432;8.680;2022-09-20T17:26:55;13.20;96.20
10231;DHT22;62604;49.432;8.680;2022-09-20T17:29:22;13.10;97.30
10231;DHT22;62604;49.432;8.680;2022-09-20T17:31:50;13.00;98.70
10231;DHT22;62604;49.432;8.680;2022-09-20T17:34:17;12.90;99.50
10231;DHT22;62604;49.432;8.680;2022-09-20T17:36:48;12.80;99.90
10231;DHT22;62604;49.432;8.680;2022-09-20T17:39:18;12.50;99.90
10231;DHT22;62604;49.432;8.680;2022-09-20T17:41:46;12.60;99.90
10231;DHT22;62604;49.432;8.680;2022-09-20T17:44:14;12.50;99.90